sensor_id;sensor_type;location;lat;lon;timestamp;P1;durP1;ratioP1;P2;durP2;ratioP2
7531;SDS011;3807;49.030;8.714;2023-05-07T00:00:12;3.10;;;1.87;;
7531;SDS011;3807;49.030;8.714;2023-05-07T00:02:40;2.77;;;1.97;;
7531;SDS011;3807;49.030;8.714;2023-05-07T00:05:06;3.28;;;1.87;;
7531;SDS011;3807;49.030;8.714;2023-05-07T00:07:32;3.27;;;1.57;;
7531;SDS011;3807;49.030;8.714;2023-05-07T00:09:57;2.93;;;1.97;;
7531;SDS011;3807;49.030;8.714;2023-05-07T00:12:22;4.30;;;1.83;;
7531;SDS011;3807;49.030;8.714;2023-05-07T00:14:48;4.37;;;2.10;;
7531;SDS011;3807;49.030;8.714;2023-05-07T00:17:13;4.13;;;2.20;;
7531;SDS011;3807;49.030;8.714;2023-05-07T00:19:38;8.15;;;2.33;;
7531;SDS011;3807;49.030;8.714;2023-05-07T00:22:04;3.00;;;2.13;;
7531;SDS011;3807;49.030;8.714;2023-05-07T00:24:29;5.63;;;2.53;;
7531;SDS011;3807;49.030;8.714;2023-05-07T00:26:55;3.23;;;2.07;;
7531;SDS011;3807;49.030;8.714;2023-05-07T00:29:20;7.10;;;2.10;;
7531;SDS011;3807;49.030;8.714;2023-05-07T00:31:45;4.50;;;1.90;;
7531;SDS011;3807;49.030;8.714;2023-05-07T00:34:11;4.93;;;2.60;;
7531;SDS011;3807;49.030;8.714;2023-05-07T00:36:36;3.23;;;1.97;;
7531;SDS011;3807;49.030;8.714;2023-05-07T00:39:01;6.83;;;2.40;;
7531;SDS011;3807;49.030;8.714;2023-05-07T00:41:28;4.73;;;2.43;;
7531;SDS011;3807;49.030;8.714;2023-05-07T00:43:55;4.30;;;2.20;;
7531;SDS011;3807;49.030;8.714;2023-05-07T00:46:21;4.13;;;2.13;;
7531;SDS011;3807;49.030;8.714;2023-05-07T00:48:47;2.63;;;2.00;;
7531;SDS011;3807;49.030;8.714;2023-05-07T00:51:14;2.40;;;1.90;;
7531;SDS011;3807;49.030;8.714;2023-05-07T00:53:40;2.80;;;2.00;;
7531;SDS011;3807;49.030;8.714;2023-05-07T00:56:05;6.27;;;2.23;;
7531;SDS011;3807;49.030;8.714;2023-05-07T00:58:31;3.77;;;2.40;;
7531;SDS011;3807;49.030;8.714;2023-05-07T01:00:58;8.60;;;2.30;;
7531;SDS011;3807;49.030;8.714;2023-05-07T01:03:24;3.87;;;2.23;;
7531;SDS011;3807;49.030;8.714;2023-05-07T01:05:49;4.30;;;2.10;;
7531;SDS011;3807;49.030;8.714;2023-05-07T01:08:16;3.10;;;2.20;;
7531;SDS011;3807;49.030;8.714;2023-05-07T01:10:43;3.17;;;2.17;;
7531;SDS011;3807;49.030;8.714;2023-05-07T01:13:09;2.17;;;1.90;;
7531;SDS011;3807;49.030;8.714;2023-05-07T01:15:37;3.23;;;2.33;;
7531;SDS011;3807;49.030;8.714;2023-05-07T01:18:03;2.87;;;1.90;;
7531;SDS011;3807;49.030;8.714;2023-05-07T01:20:28;2.33;;;2.07;;
7531;SDS011;3807;49.030;8.714;2023-05-07T01:22:54;2.63;;;1.80;;
7531;SDS011;3807;49.030;8.714;2023-05-07T01:25:21;2.30;;;1.90;;
7531;SDS011;3807;49.030;8.714;2023-05-07T01:27:46;4.90;;;2.20;;
7531;SDS011;3807;49.030;8.714;2023-05-07T01:30:12;8.00;;;2.10;;
7531;SDS011;3807;49.030;8.714;2023-05-07T01:32:38;2.90;;;2.00;;
7531;SDS011;3807;49.030;8.714;2023-05-07T01:35:11;4.07;;;2.30;;
7531;SDS011;3807;49.030;8.714;2023-05-07T01:37:39;5.27;;;2.20;;
7531;SDS011;3807;49.030;8.714;2023-05-07T01:40:05;2.17;;;1.90;;
7531;SDS011;3807;49.030;8.714;2023-05-07T01:42:32;2.87;;;2.40;;
7531;SDS011;3807;49.030;8.714;2023-05-07T01:44:58;4.67;;;2.10;;
7531;SDS011;3807;49.030;8.714;2023-05-07T01:47:24;5.97;;;2.73;;
7531;SDS011;3807;49.030;8.714;2023-05-07T01:49:50;4.50;;;2.30;;
7531;SDS011;3807;49.030;8.714;2023-05-07T01:52:15;5.20;;;2.40;;
7531;SDS011;3807;49.030;8.714;2023-05-07T01:54:41;2.93;;;2.07;;
7531;SDS011;3807;49.030;8.714;2023-05-07T01:57:06;5.43;;;2.30;;
7531;SDS011;3807;49.030;8.714;2023-05-07T01:59:31;8.40;;;2.63;;
7531;SDS011;3807;49.030;8.714;2023-05-07T02:01:57;2.40;;;2.20;;
7531;SDS011;3807;49.030;8.714;2023-05-07T02:04:22;3.27;;;2.10;;
7531;SDS011;3807;49.030;8.714;2023-05-07T02:06:48;4.83;;;2.60;;
7531;SDS011;3807;49.030;8.714;2023-05-07T02:09:13;7.93;;;2.83;;
7531;SDS011;3807;49.030;8.714;2023-05-07T02:11:39;3.93;;;2.47;;
7531;SDS011;3807;49.030;8.714;2023-05-07T02:14:05;7.37;;;2.80;;
7531;SDS011;3807;49.030;8.714;2023-05-07T02:16:30;3.40;;;2.50;;
7531;SDS011;3807;49.030;8.714;2023-05-07T02:18:56;2.50;;;2.23;;
7531;SDS011;3807;49.030;8.714;2023-05-07T02:21:21;4.83;;;2.70;;
7531;SDS011;3807;49.030;8.714;2023-05-07T02:23:46;4.90;;;2.50;;
7531;SDS011;3807;49.030;8.714;2023-05-07T02:26:12;5.57;;;2.17;;
7531;SDS011;3807;49.030;8.714;2023-05-07T02:28:37;2.77;;;2.30;;
7531;SDS011;3807;49.030;8.714;2023-05-07T02:31:03;4.43;;;2.50;;
7531;SDS011;3807;49.030;8.714;2023-05-07T02:33:28;5.23;;;2.50;;
7531;SDS011;3807;49.030;8.714;2023-05-07T02:35:54;4.57;;;1.93;;
7531;SDS011;3807;49.030;8.714;2023-05-07T02:38:20;5.63;;;2.50;;
7531;SDS011;3807;49.030;8.714;2023-05-07T02:40:45;4.97;;;2.40;;
7531;SDS011;3807;49.030;8.714;2023-05-07T02:43:10;3.27;;;2.40;;
7531;SDS011;3807;49.030;8.714;2023-05-07T02:45:36;3.63;;;2.73;;
7531;SDS011;3807;49.030;8.714;2023-05-07T02:48:02;3.77;;;2.50;;
7531;SDS011;3807;49.030;8.714;2023-05-07T02:50:28;3.50;;;2.07;;
7531;SDS011;3807;49.030;8.714;2023-05-07T02:52:54;3.97;;;2.57;;
7531;SDS011;3807;49.030;8.714;2023-05-07T02:55:20;3.80;;;2.53;;
7531;SDS011;3807;49.030;8.714;2023-05-07T02:57:45;5.83;;;2.80;;
7531;SDS011;3807;49.030;8.714;2023-05-07T03:00:11;4.60;;;2.53;;
7531;SDS011;3807;49.030;8.714;2023-05-07T03:02:38;4.23;;;2.67;;
7531;SDS011;3807;49.030;8.714;2023-05-07T03:05:03;6.00;;;2.57;;
7531;SDS011;3807;49.030;8.714;2023-05-07T03:07:29;2.60;;;2.40;;
7531;SDS011;3807;49.030;8.714;2023-05-07T03:09:55;3.67;;;2.33;;
7531;SDS011;3807;49.030;8.714;2023-05-07T03:12:20;4.83;;;2.13;;
7531;SDS011;3807;49.030;8.714;2023-05-07T03:14:45;6.10;;;1.90;;
7531;SDS011;3807;49.030;8.714;2023-05-07T03:17:11;2.73;;;2.10;;
7531;SDS011;3807;49.030;8.714;2023-05-07T03:19:36;3.77;;;2.27;;
7531;SDS011;3807;49.030;8.714;2023-05-07T03:22:01;2.80;;;2.10;;
7531;SDS011;3807;49.030;8.714;2023-05-07T03:24:27;4.93;;;2.23;;
7531;SDS011;3807;49.030;8.714;2023-05-07T03:26:52;2.33;;;2.00;;
7531;SDS011;3807;49.030;8.714;2023-05-07T03:29:17;3.47;;;1.97;;
7531;SDS011;3807;49.030;8.714;2023-05-07T03:31:43;3.90;;;2.23;;
7531;SDS011;3807;49.030;8.714;2023-05-07T03:34:08;5.93;;;2.20;;
7531;SDS011;3807;49.030;8.714;2023-05-07T03:36:33;3.73;;;2.20;;
7531;SDS011;3807;49.030;8.714;2023-05-07T03:38:59;2.33;;;1.90;;
7531;SDS011;3807;49.030;8.714;2023-05-07T03:41:24;6.43;;;2.37;;
7531;SDS011;3807;49.030;8.714;2023-05-07T03:43:50;3.50;;;2.20;;
7531;SDS011;3807;49.030;8.714;2023-05-07T03:46:16;2.57;;;2.03;;
7531;SDS011;3807;49.030;8.714;2023-05-07T03:48:41;3.53;;;2.23;;
7531;SDS011;3807;49.030;8.714;2023-05-07T03:51:06;4.90;;;2.37;;
7531;SDS011;3807;49.030;8.714;2023-05-07T03:53:32;5.80;;;2.33;;
7531;SDS011;3807;49.030;8.714;2023-05-07T03:55:57;4.40;;;2.50;;
7531;SDS011;3807;49.030;8.714;2023-05-07T03:58:22;2.87;;;2.00;;
7531;SDS011;3807;49.030;8.714;2023-05-07T04:00:48;2.60;;;2.03;;
7531;SDS011;3807;49.030;8.714;2023-05-07T04:03:13;6.13;;;2.70;;
7531;SDS011;3807;49.030;8.714;2023-05-07T04:05:39;2.03;;;1.77;;
7531;SDS011;3807;49.030;8.714;2023-05-07T04:08:04;2.80;;;2.00;;
7531;SDS011;3807;49.030;8.714;2023-05-07T04:10:30;2.50;;;1.83;;
7531;SDS011;3807;49.030;8.714;2023-05-07T04:12:56;3.10;;;2.17;;
7531;SDS011;3807;49.030;8.714;2023-05-07T04:15:22;3.63;;;2.10;;
7531;SDS011;3807;49.030;8.714;2023-05-07T04:17:47;2.53;;;2.17;;
7531;SDS011;3807;49.030;8.714;2023-05-07T04:20:16;2.63;;;2.33;;
7531;SDS011;3807;49.030;8.714;2023-05-07T04:22:42;5.37;;;2.70;;
7531;SDS011;3807;49.030;8.714;2023-05-07T04:25:08;3.77;;;2.40;;
7531;SDS011;3807;49.030;8.714;2023-05-07T04:27:34;3.10;;;2.47;;
7531;SDS011;3807;49.030;8.714;2023-05-07T04:30:01;11.47;;;2.60;;
7531;SDS011;3807;49.030;8.714;2023-05-07T04:32:27;2.40;;;2.20;;
7531;SDS011;3807;49.030;8.714;2023-05-07T04:34:54;4.40;;;2.50;;
7531;SDS011;3807;49.030;8.714;2023-05-07T04:37:20;4.63;;;2.40;;
7531;SDS011;3807;49.030;8.714;2023-05-07T04:39:45;7.00;;;2.73;;
7531;SDS011;3807;49.030;8.714;2023-05-07T04:42:14;3.83;;;2.13;;
7531;SDS011;3807;49.030;8.714;2023-05-07T04:44:40;2.80;;;1.93;;
7531;SDS011;3807;49.030;8.714;2023-05-07T04:47:05;3.07;;;2.37;;
7531;SDS011;3807;49.030;8.714;2023-05-07T04:49:31;3.13;;;2.50;;
7531;SDS011;3807;49.030;8.714;2023-05-07T04:51:56;3.30;;;3.00;;
7531;SDS011;3807;49.030;8.714;2023-05-07T04:54:22;6.03;;;2.80;;
7531;SDS011;3807;49.030;8.714;2023-05-07T04:56:47;5.90;;;2.93;;
7531;SDS011;3807;49.030;8.714;2023-05-07T04:59:12;3.67;;;3.07;;
7531;SDS011;3807;49.030;8.714;2023-05-07T05:01:38;4.93;;;3.40;;
7531;SDS011;3807;49.030;8.714;2023-05-07T05:04:03;3.10;;;2.80;;
7531;SDS011;3807;49.030;8.714;2023-05-07T05:06:28;5.50;;;3.07;;
7531;SDS011;3807;49.030;8.714;2023-05-07T05:08:54;3.23;;;2.77;;
7531;SDS011;3807;49.030;8.714;2023-05-07T05:11:20;3.33;;;2.87;;
7531;SDS011;3807;49.030;8.714;2023-05-07T05:13:45;4.63;;;3.20;;
7531;SDS011;3807;49.030;8.714;2023-05-07T05:16:13;3.03;;;2.73;;
7531;SDS011;3807;49.030;8.714;2023-05-07T05:18:39;6.83;;;2.63;;
7531;SDS011;3807;49.030;8.714;2023-05-07T05:21:05;6.57;;;2.57;;
7531;SDS011;3807;49.030;8.714;2023-05-07T05:23:30;2.77;;;2.57;;
7531;SDS011;3807;49.030;8.714;2023-05-07T05:25:56;4.90;;;3.07;;
7531;SDS011;3807;49.030;8.714;2023-05-07T05:28:22;4.53;;;3.03;;
7531;SDS011;3807;49.030;8.714;2023-05-07T05:30:48;3.53;;;2.63;;
7531;SDS011;3807;49.030;8.714;2023-05-07T05:33:13;3.23;;;2.57;;
7531;SDS011;3807;49.030;8.714;2023-05-07T05:35:39;5.03;;;3.10;;
7531;SDS011;3807;49.030;8.714;2023-05-07T05:38:04;4.10;;;2.60;;
7531;SDS011;3807;49.030;8.714;2023-05-07T05:40:30;4.70;;;3.00;;
7531;SDS011;3807;49.030;8.714;2023-05-07T05:42:55;3.20;;;2.90;;
7531;SDS011;3807;49.030;8.714;2023-05-07T05:45:21;3.57;;;2.90;;
7531;SDS011;3807;49.030;8.714;2023-05-07T05:47:46;3.60;;;2.57;;
7531;SDS011;3807;49.030;8.714;2023-05-07T05:50:11;5.80;;;2.93;;
7531;SDS011;3807;49.030;8.714;2023-05-07T05:52:37;3.63;;;3.00;;
7531;SDS011;3807;49.030;8.714;2023-05-07T05:55:03;5.70;;;3.53;;
7531;SDS011;3807;49.030;8.714;2023-05-07T05:57:28;5.20;;;2.73;;
7531;SDS011;3807;49.030;8.714;2023-05-07T05:59:54;3.63;;;2.87;;
7531;SDS011;3807;49.030;8.714;2023-05-07T06:02:19;3.33;;;2.80;;
7531;SDS011;3807;49.030;8.714;2023-05-07T06:04:45;4.43;;;2.80;;
7531;SDS011;3807;49.030;8.714;2023-05-07T06:07:10;6.37;;;2.60;;
7531;SDS011;3807;49.030;8.714;2023-05-07T06:09:36;4.50;;;2.80;;
7531;SDS011;3807;49.030;8.714;2023-05-07T06:12:01;3.87;;;2.90;;
7531;SDS011;3807;49.030;8.714;2023-05-07T06:14:27;3.10;;;2.37;;
7531;SDS011;3807;49.030;8.714;2023-05-07T06:16:52;3.43;;;2.80;;
7531;SDS011;3807;49.030;8.714;2023-05-07T06:19:17;4.77;;;2.77;;
7531;SDS011;3807;49.030;8.714;2023-05-07T06:21:47;3.23;;;2.40;;
7531;SDS011;3807;49.030;8.714;2023-05-07T06:24:13;3.30;;;2.60;;
7531;SDS011;3807;49.030;8.714;2023-05-07T06:26:38;4.20;;;2.50;;
7531;SDS011;3807;49.030;8.714;2023-05-07T06:29:04;2.83;;;2.60;;
7531;SDS011;3807;49.030;8.714;2023-05-07T06:31:31;4.53;;;2.73;;
7531;SDS011;3807;49.030;8.714;2023-05-07T06:33:57;2.90;;;2.50;;
7531;SDS011;3807;49.030;8.714;2023-05-07T06:36:22;5.33;;;2.33;;
7531;SDS011;3807;49.030;8.714;2023-05-07T06:38:47;5.00;;;2.13;;
7531;SDS011;3807;49.030;8.714;2023-05-07T06:41:13;4.37;;;2.57;;
7531;SDS011;3807;49.030;8.714;2023-05-07T06:43:38;4.10;;;2.30;;
7531;SDS011;3807;49.030;8.714;2023-05-07T06:46:04;4.00;;;2.10;;
7531;SDS011;3807;49.030;8.714;2023-05-07T06:48:30;3.77;;;2.30;;
7531;SDS011;3807;49.030;8.714;2023-05-07T06:50:55;2.87;;;2.17;;
7531;SDS011;3807;49.030;8.714;2023-05-07T06:53:22;3.73;;;2.07;;
7531;SDS011;3807;49.030;8.714;2023-05-07T06:55:48;3.50;;;1.90;;
7531;SDS011;3807;49.030;8.714;2023-05-07T06:58:13;2.70;;;1.93;;
7531;SDS011;3807;49.030;8.714;2023-05-07T07:00:39;3.33;;;2.17;;
7531;SDS011;3807;49.030;8.714;2023-05-07T07:03:05;4.03;;;1.93;;
7531;SDS011;3807;49.030;8.714;2023-05-07T07:05:31;3.63;;;2.20;;
7531;SDS011;3807;49.030;8.714;2023-05-07T07:07:56;3.30;;;1.87;;
7531;SDS011;3807;49.030;8.714;2023-05-07T07:10:22;3.97;;;2.03;;
7531;SDS011;3807;49.030;8.714;2023-05-07T07:12:48;2.87;;;2.20;;
7531;SDS011;3807;49.030;8.714;2023-05-07T07:15:14;3.07;;;2.30;;
7531;SDS011;3807;49.030;8.714;2023-05-07T07:17:39;4.60;;;1.80;;
7531;SDS011;3807;49.030;8.714;2023-05-07T07:20:05;4.70;;;2.13;;
7531;SDS011;3807;49.030;8.714;2023-05-07T07:22:31;2.13;;;1.93;;
7531;SDS011;3807;49.030;8.714;2023-05-07T07:24:56;1.93;;;1.77;;
7531;SDS011;3807;49.030;8.714;2023-05-07T07:27:22;2.43;;;1.90;;
7531;SDS011;3807;49.030;8.714;2023-05-07T07:29:47;2.23;;;1.80;;
7531;SDS011;3807;49.030;8.714;2023-05-07T07:32:12;2.20;;;2.00;;
7531;SDS011;3807;49.030;8.714;2023-05-07T07:34:38;4.63;;;2.00;;
7531;SDS011;3807;49.030;8.714;2023-05-07T07:37:03;2.40;;;2.20;;
7531;SDS011;3807;49.030;8.714;2023-05-07T07:39:31;2.97;;;2.03;;
7531;SDS011;3807;49.030;8.714;2023-05-07T07:41:57;3.23;;;2.03;;
7531;SDS011;3807;49.030;8.714;2023-05-07T07:44:22;3.07;;;2.20;;
7531;SDS011;3807;49.030;8.714;2023-05-07T07:46:47;3.53;;;1.90;;
7531;SDS011;3807;49.030;8.714;2023-05-07T07:49:13;2.33;;;2.00;;
7531;SDS011;3807;49.030;8.714;2023-05-07T07:51:39;3.20;;;2.07;;
7531;SDS011;3807;49.030;8.714;2023-05-07T07:54:05;5.60;;;2.03;;
7531;SDS011;3807;49.030;8.714;2023-05-07T07:56:31;3.70;;;1.87;;
7531;SDS011;3807;49.030;8.714;2023-05-07T07:58:58;2.20;;;2.00;;
7531;SDS011;3807;49.030;8.714;2023-05-07T08:01:23;3.83;;;2.10;;
7531;SDS011;3807;49.030;8.714;2023-05-07T08:03:49;3.00;;;1.80;;
7531;SDS011;3807;49.030;8.714;2023-05-07T08:06:14;4.10;;;2.40;;
7531;SDS011;3807;49.030;8.714;2023-05-07T08:08:40;4.60;;;2.70;;
7531;SDS011;3807;49.030;8.714;2023-05-07T08:11:05;3.23;;;2.50;;
7531;SDS011;3807;49.030;8.714;2023-05-07T08:13:31;3.87;;;2.67;;
7531;SDS011;3807;49.030;8.714;2023-05-07T08:15:56;4.70;;;2.60;;
7531;SDS011;3807;49.030;8.714;2023-05-07T08:18:22;3.50;;;2.40;;
7531;SDS011;3807;49.030;8.714;2023-05-07T08:20:49;4.33;;;2.50;;
7531;SDS011;3807;49.030;8.714;2023-05-07T08:23:15;4.53;;;2.30;;
7531;SDS011;3807;49.030;8.714;2023-05-07T08:25:40;4.37;;;2.77;;
7531;SDS011;3807;49.030;8.714;2023-05-07T08:28:07;3.10;;;2.43;;
7531;SDS011;3807;49.030;8.714;2023-05-07T08:30:33;3.60;;;2.37;;
7531;SDS011;3807;49.030;8.714;2023-05-07T08:32:59;4.10;;;2.50;;
7531;SDS011;3807;49.030;8.714;2023-05-07T08:35:25;3.40;;;2.50;;
7531;SDS011;3807;49.030;8.714;2023-05-07T08:37:51;2.83;;;2.47;;
7531;SDS011;3807;49.030;8.714;2023-05-07T08:40:17;3.50;;;2.30;;
7531;SDS011;3807;49.030;8.714;2023-05-07T08:42:42;3.73;;;2.13;;
7531;SDS011;3807;49.030;8.714;2023-05-07T08:45:09;5.40;;;2.20;;
7531;SDS011;3807;49.030;8.714;2023-05-07T08:47:39;6.50;;;2.50;;
7531;SDS011;3807;49.030;8.714;2023-05-07T08:50:09;3.70;;;2.50;;
7531;SDS011;3807;49.030;8.714;2023-05-07T08:52:35;4.70;;;2.53;;
7531;SDS011;3807;49.030;8.714;2023-05-07T08:55:02;2.43;;;2.23;;
7531;SDS011;3807;49.030;8.714;2023-05-07T08:57:27;4.77;;;2.43;;
7531;SDS011;3807;49.030;8.714;2023-05-07T08:59:53;3.20;;;2.47;;
7531;SDS011;3807;49.030;8.714;2023-05-07T09:02:18;2.80;;;2.40;;
7531;SDS011;3807;49.030;8.714;2023-05-07T09:04:44;4.30;;;2.67;;
7531;SDS011;3807;49.030;8.714;2023-05-07T09:07:09;7.47;;;2.80;;
7531;SDS011;3807;49.030;8.714;2023-05-07T09:09:35;3.30;;;2.50;;
7531;SDS011;3807;49.030;8.714;2023-05-07T09:12:00;4.13;;;2.63;;
7531;SDS011;3807;49.030;8.714;2023-05-07T09:14:26;4.23;;;2.60;;
7531;SDS011;3807;49.030;8.714;2023-05-07T09:16:52;2.80;;;2.43;;
7531;SDS011;3807;49.030;8.714;2023-05-07T09:19:22;2.70;;;2.50;;
7531;SDS011;3807;49.030;8.714;2023-05-07T09:21:49;3.60;;;2.57;;
7531;SDS011;3807;49.030;8.714;2023-05-07T09:24:15;3.37;;;2.83;;
7531;SDS011;3807;49.030;8.714;2023-05-07T09:26:41;4.30;;;2.63;;
7531;SDS011;3807;49.030;8.714;2023-05-07T09:29:07;3.07;;;1.93;;
7531;SDS011;3807;49.030;8.714;2023-05-07T09:31:37;3.43;;;2.53;;
7531;SDS011;3807;49.030;8.714;2023-05-07T09:34:04;3.00;;;2.27;;
7531;SDS011;3807;49.030;8.714;2023-05-07T09:36:31;2.97;;;2.67;;
7531;SDS011;3807;49.030;8.714;2023-05-07T09:38:59;4.03;;;2.67;;
7531;SDS011;3807;49.030;8.714;2023-05-07T09:41:25;4.10;;;2.40;;
7531;SDS011;3807;49.030;8.714;2023-05-07T09:43:54;5.67;;;2.33;;
7531;SDS011;3807;49.030;8.714;2023-05-07T09:46:20;3.50;;;2.50;;
7531;SDS011;3807;49.030;8.714;2023-05-07T09:48:56;5.57;;;2.43;;
7531;SDS011;3807;49.030;8.714;2023-05-07T09:51:25;2.83;;;2.13;;
7531;SDS011;3807;49.030;8.714;2023-05-07T09:53:54;2.60;;;2.40;;
7531;SDS011;3807;49.030;8.714;2023-05-07T09:56:21;3.03;;;2.33;;
7531;SDS011;3807;49.030;8.714;2023-05-07T09:58:48;3.73;;;2.57;;
7531;SDS011;3807;49.030;8.714;2023-05-07T10:01:15;3.50;;;2.20;;
7531;SDS011;3807;49.030;8.714;2023-05-07T10:03:42;2.73;;;2.10;;
7531;SDS011;3807;49.030;8.714;2023-05-07T10:06:09;3.10;;;2.00;;
7531;SDS011;3807;49.030;8.714;2023-05-07T10:08:35;2.83;;;2.00;;
7531;SDS011;3807;49.030;8.714;2023-05-07T10:11:02;2.60;;;2.03;;
7531;SDS011;3807;49.030;8.714;2023-05-07T10:13:29;2.80;;;1.97;;
7531;SDS011;3807;49.030;8.714;2023-05-07T10:15:55;2.80;;;1.70;;
7531;SDS011;3807;49.030;8.714;2023-05-07T10:18:21;4.93;;;2.10;;
7531;SDS011;3807;49.030;8.714;2023-05-07T10:20:48;5.30;;;2.00;;
7531;SDS011;3807;49.030;8.714;2023-05-07T10:23:18;4.15;;;1.87;;
7531;SDS011;3807;49.030;8.714;2023-05-07T10:25:48;2.73;;;2.20;;
7531;SDS011;3807;49.030;8.714;2023-05-07T10:28:13;2.57;;;2.20;;
7531;SDS011;3807;49.030;8.714;2023-05-07T10:33:27;3.17;;;2.25;;
7531;SDS011;3807;49.030;8.714;2023-05-07T10:36:00;3.47;;;2.40;;
7531;SDS011;3807;49.030;8.714;2023-05-07T10:38:27;4.97;;;2.15;;
7531;SDS011;3807;49.030;8.714;2023-05-07T10:40:53;2.28;;;2.03;;
7531;SDS011;3807;49.030;8.714;2023-05-07T10:43:19;2.50;;;2.30;;
7531;SDS011;3807;49.030;8.714;2023-05-07T10:46:08;3.30;;;2.00;;
7531;SDS011;3807;49.030;8.714;2023-05-07T10:51:27;2.20;;;2.00;;
7531;SDS011;3807;49.030;8.714;2023-05-07T10:56:39;4.20;;;1.65;;
7531;SDS011;3807;49.030;8.714;2023-05-07T11:04:24;2.90;;;1.60;;
7531;SDS011;3807;49.030;8.714;2023-05-07T11:15:08;3.10;;;1.77;;
7531;SDS011;3807;49.030;8.714;2023-05-07T11:17:53;2.60;;;1.70;;
7531;SDS011;3807;49.030;8.714;2023-05-07T11:20:20;2.55;;;1.77;;
7531;SDS011;3807;49.030;8.714;2023-05-07T11:22:46;2.15;;;1.60;;
7531;SDS011;3807;49.030;8.714;2023-05-07T11:25:14;2.70;;;1.70;;
7531;SDS011;3807;49.030;8.714;2023-05-07T11:27:43;3.85;;;2.03;;
7531;SDS011;3807;49.030;8.714;2023-05-07T11:30:09;3.30;;;1.90;;
7531;SDS011;3807;49.030;8.714;2023-05-07T11:32:36;2.70;;;1.85;;
7531;SDS011;3807;49.030;8.714;2023-05-07T11:35:01;2.33;;;1.70;;
7531;SDS011;3807;49.030;8.714;2023-05-07T11:37:27;1.90;;;1.48;;
7531;SDS011;3807;49.030;8.714;2023-05-07T11:40:07;2.10;;;1.65;;
7531;SDS011;3807;49.030;8.714;2023-05-07T11:42:36;1.83;;;1.42;;
7531;SDS011;3807;49.030;8.714;2023-05-07T11:45:03;2.45;;;1.65;;
7531;SDS011;3807;49.030;8.714;2023-05-07T11:47:30;3.40;;;1.80;;
7531;SDS011;3807;49.030;8.714;2023-05-07T11:49:56;2.80;;;2.00;;
7531;SDS011;3807;49.030;8.714;2023-05-07T11:52:22;2.40;;;1.70;;
7531;SDS011;3807;49.030;8.714;2023-05-07T11:54:53;2.40;;;1.87;;
7531;SDS011;3807;49.030;8.714;2023-05-07T11:57:21;2.85;;;1.80;;
7531;SDS011;3807;49.030;8.714;2023-05-07T11:59:47;4.68;;;2.35;;
7531;SDS011;3807;49.030;8.714;2023-05-07T12:02:13;3.30;;;1.75;;
7531;SDS011;3807;49.030;8.714;2023-05-07T12:04:40;2.20;;;1.62;;
7531;SDS011;3807;49.030;8.714;2023-05-07T12:07:05;3.15;;;1.65;;
7531;SDS011;3807;49.030;8.714;2023-05-07T12:09:35;2.28;;;1.87;;
7531;SDS011;3807;49.030;8.714;2023-05-07T12:12:05;2.12;;;1.40;;
7531;SDS011;3807;49.030;8.714;2023-05-07T12:14:30;1.98;;;1.58;;
7531;SDS011;3807;49.030;8.714;2023-05-07T12:16:57;3.03;;;1.75;;
7531;SDS011;3807;49.030;8.714;2023-05-07T12:19:24;2.55;;;1.70;;
7531;SDS011;3807;49.030;8.714;2023-05-07T12:21:49;1.67;;;1.58;;
7531;SDS011;3807;49.030;8.714;2023-05-07T12:24:15;2.42;;;1.48;;
7531;SDS011;3807;49.030;8.714;2023-05-07T12:26:41;2.30;;;1.87;;
7531;SDS011;3807;49.030;8.714;2023-05-07T12:29:06;2.17;;;1.40;;
7531;SDS011;3807;49.030;8.714;2023-05-07T12:31:32;2.97;;;1.65;;
7531;SDS011;3807;49.030;8.714;2023-05-07T12:33:57;4.68;;;1.60;;
7531;SDS011;3807;49.030;8.714;2023-05-07T12:36:22;2.20;;;1.55;;
7531;SDS011;3807;49.030;8.714;2023-05-07T12:38:51;3.37;;;1.80;;
7531;SDS011;3807;49.030;8.714;2023-05-07T12:41:16;2.17;;;1.60;;
7531;SDS011;3807;49.030;8.714;2023-05-07T12:43:46;1.73;;;1.50;;
7531;SDS011;3807;49.030;8.714;2023-05-07T12:46:11;2.70;;;1.60;;
7531;SDS011;3807;49.030;8.714;2023-05-07T12:48:45;2.67;;;1.70;;
7531;SDS011;3807;49.030;8.714;2023-05-07T12:51:11;3.17;;;1.70;;
7531;SDS011;3807;49.030;8.714;2023-05-07T12:53:41;5.85;;;1.83;;
7531;SDS011;3807;49.030;8.714;2023-05-07T12:56:07;2.10;;;1.50;;
7531;SDS011;3807;49.030;8.714;2023-05-07T12:58:34;2.15;;;1.67;;
7531;SDS011;3807;49.030;8.714;2023-05-07T13:01:01;2.40;;;1.70;;
7531;SDS011;3807;49.030;8.714;2023-05-07T13:03:30;2.05;;;1.48;;
7531;SDS011;3807;49.030;8.714;2023-05-07T13:06:01;4.60;;;1.80;;
7531;SDS011;3807;49.030;8.714;2023-05-07T13:08:29;4.00;;;1.60;;
7531;SDS011;3807;49.030;8.714;2023-05-07T13:10:59;2.50;;;1.70;;
7531;SDS011;3807;49.030;8.714;2023-05-07T13:13:29;3.20;;;2.20;;
7531;SDS011;3807;49.030;8.714;2023-05-07T13:15:59;4.60;;;2.58;;
7531;SDS011;3807;49.030;8.714;2023-05-07T13:18:25;5.68;;;2.62;;
7531;SDS011;3807;49.030;8.714;2023-05-07T13:20:51;4.80;;;2.30;;
7531;SDS011;3807;49.030;8.714;2023-05-07T13:23:17;3.17;;;1.45;;
7531;SDS011;3807;49.030;8.714;2023-05-07T13:25:43;3.37;;;1.52;;
7531;SDS011;3807;49.030;8.714;2023-05-07T13:28:08;4.57;;;2.00;;
7531;SDS011;3807;49.030;8.714;2023-05-07T13:30:33;12.20;;;2.20;;
7531;SDS011;3807;49.030;8.714;2023-05-07T13:32:59;6.87;;;1.92;;
7531;SDS011;3807;49.030;8.714;2023-05-07T13:35:25;4.87;;;1.62;;
7531;SDS011;3807;49.030;8.714;2023-05-07T13:37:51;7.60;;;2.10;;
7531;SDS011;3807;49.030;8.714;2023-05-07T13:40:17;8.35;;;2.17;;
7531;SDS011;3807;49.030;8.714;2023-05-07T13:42:43;6.93;;;2.35;;
7531;SDS011;3807;49.030;8.714;2023-05-07T13:45:09;3.35;;;1.37;;
7531;SDS011;3807;49.030;8.714;2023-05-07T13:47:34;5.15;;;1.90;;
7531;SDS011;3807;49.030;8.714;2023-05-07T13:50:00;7.40;;;2.00;;
7531;SDS011;3807;49.030;8.714;2023-05-07T13:52:25;12.57;;;2.08;;
7531;SDS011;3807;49.030;8.714;2023-05-07T13:54:51;5.40;;;1.92;;
7531;SDS011;3807;49.030;8.714;2023-05-07T13:57:17;8.40;;;1.37;;
7531;SDS011;3807;49.030;8.714;2023-05-07T13:59:42;8.15;;;1.62;;
7531;SDS011;3807;49.030;8.714;2023-05-07T14:02:08;3.87;;;1.42;;
7531;SDS011;3807;49.030;8.714;2023-05-07T14:04:34;6.45;;;1.90;;
7531;SDS011;3807;49.030;8.714;2023-05-07T14:06:59;3.87;;;1.10;;
7531;SDS011;3807;49.030;8.714;2023-05-07T14:09:25;2.92;;;1.27;;
7531;SDS011;3807;49.030;8.714;2023-05-07T14:11:50;3.65;;;1.70;;
7531;SDS011;3807;49.030;8.714;2023-05-07T14:14:19;4.28;;;1.50;;
7531;SDS011;3807;49.030;8.714;2023-05-07T14:16:44;6.00;;;1.95;;
7531;SDS011;3807;49.030;8.714;2023-05-07T14:19:10;4.85;;;1.62;;
7531;SDS011;3807;49.030;8.714;2023-05-07T14:21:39;2.92;;;1.73;;
7531;SDS011;3807;49.030;8.714;2023-05-07T14:24:06;3.17;;;1.27;;
7531;SDS011;3807;49.030;8.714;2023-05-07T14:26:33;4.47;;;1.40;;
7531;SDS011;3807;49.030;8.714;2023-05-07T14:28:58;5.57;;;1.58;;
7531;SDS011;3807;49.030;8.714;2023-05-07T14:31:24;3.75;;;1.27;;
7531;SDS011;3807;49.030;8.714;2023-05-07T14:33:49;4.80;;;1.80;;
7531;SDS011;3807;49.030;8.714;2023-05-07T14:36:15;4.97;;;1.37;;
7531;SDS011;3807;49.030;8.714;2023-05-07T14:38:42;3.25;;;1.30;;
7531;SDS011;3807;49.030;8.714;2023-05-07T14:41:07;3.70;;;1.40;;
7531;SDS011;3807;49.030;8.714;2023-05-07T14:43:32;3.70;;;1.60;;
7531;SDS011;3807;49.030;8.714;2023-05-07T14:45:58;3.53;;;1.40;;
7531;SDS011;3807;49.030;8.714;2023-05-07T14:48:23;1.60;;;1.25;;
7531;SDS011;3807;49.030;8.714;2023-05-07T14:50:48;3.65;;;1.23;;
7531;SDS011;3807;49.030;8.714;2023-05-07T14:53:14;4.03;;;1.42;;
7531;SDS011;3807;49.030;8.714;2023-05-07T14:55:40;3.50;;;1.50;;
7531;SDS011;3807;49.030;8.714;2023-05-07T14:58:05;5.30;;;1.50;;
7531;SDS011;3807;49.030;8.714;2023-05-07T15:00:31;2.75;;;1.50;;
7531;SDS011;3807;49.030;8.714;2023-05-07T15:03:00;3.60;;;1.62;;
7531;SDS011;3807;49.030;8.714;2023-05-07T15:05:30;2.83;;;1.80;;
7531;SDS011;3807;49.030;8.714;2023-05-07T15:07:55;4.85;;;1.87;;
7531;SDS011;3807;49.030;8.714;2023-05-07T15:10:21;3.03;;;1.62;;
7531;SDS011;3807;49.030;8.714;2023-05-07T15:12:46;5.65;;;2.10;;
7531;SDS011;3807;49.030;8.714;2023-05-07T15:15:11;3.55;;;1.85;;
7531;SDS011;3807;49.030;8.714;2023-05-07T15:17:37;4.10;;;1.92;;
7531;SDS011;3807;49.030;8.714;2023-05-07T15:20:02;5.07;;;2.15;;
7531;SDS011;3807;49.030;8.714;2023-05-07T15:22:29;3.58;;;1.87;;
7531;SDS011;3807;49.030;8.714;2023-05-07T15:24:55;2.08;;;1.65;;
7531;SDS011;3807;49.030;8.714;2023-05-07T15:27:21;3.80;;;1.90;;
7531;SDS011;3807;49.030;8.714;2023-05-07T15:29:47;4.05;;;1.87;;